WetterOnline ( https://www.wetteronline.de )

Wetter aktuell Waiblingen

Aktuelles Wetter: Schnarrenberg/Stuttgart (315m)

6-stündlich | Neueste Meldungen
Ortszeit Temperatur Wetter
Do, 22.02. 19:00 10.2° C leichter Regen
Do, 22.02. 13:00 10.0° C leichter Regen
Do, 22.02. 7:00 8.9° C leichter Regen
Do, 22.02. 1:00 12.8° C bewölkt
Mi, 21.02. 19:00 11.1° C bewölkt
Mi, 21.02. 13:00 11.1° C bedeckt
Mi, 21.02. 7:00 5.6° C bedeckt
Mi, 21.02. 1:00 7.1° C bewölkt
Ortszeit Temperatur Wetter
Do, 22.02. 22:30 9.9° C bewölkt
Do, 22.02. 22:20 9.9° C bewölkt
Do, 22.02. 22:10 10.1° C bewölkt
Do, 22.02. 22:00 10.2° C Regen
Do, 22.02. 21:50 10.2° C bewölkt
Do, 22.02. 21:40 10.2° C leichter Regen
Do, 22.02. 21:30 10.9° C leichter Regen
Do, 22.02. 21:00 12.0° C wolkig
Do, 22.02. 20:30 11.6° C bedeckt
Do, 22.02. 20:00 11.0° C bewölkt
Do, 22.02. 19:30 10.3° C Sprühregen
Ortszeit Relative Feuchte Sichtweite
Do, 22.02. 19:00 83% 40 km
Do, 22.02. 13:00 86% 24 km
Do, 22.02. 7:00 87% 28 km
Do, 22.02. 1:00 45% >70 km
Mi, 21.02. 19:00 57% 60 km
Mi, 21.02. 13:00 52% >70 km
Mi, 21.02. 7:00 76% 50 km
Mi, 21.02. 1:00 72% 55 km
Ortszeit Relative Feuchte Sichtweite
Do, 22.02. 22:30 72% >70 km
Do, 22.02. 22:20 72% -
Do, 22.02. 22:10 76% -
Do, 22.02. 22:00 83% >70 km
Do, 22.02. 21:50 83% -
Do, 22.02. 21:40 86% -
Do, 22.02. 21:30 79% 9 km
Do, 22.02. 21:00 69% >70 km
Do, 22.02. 20:30 72% >70 km
Do, 22.02. 20:00 76% >70 km
Do, 22.02. 19:30 81% >70 km
Ortszeit Niederschlagsmenge Niederschlagsart
Do, 22.02. 19:00 4 l/m2 in 12 Std. Regen
Do, 22.02. 13:00 2 l/m2 in 6 Std. Regen
Do, 22.02. 7:00 0.5 l/m2 in 12 Std. Regen
Do, 22.02. 1:00 0.0 l/m2 in 6 Std. -
Mi, 21.02. 19:00 0.0 l/m2 in 12 Std. -
Mi, 21.02. 13:00 0.0 l/m2 in 6 Std. -
Mi, 21.02. 7:00 0.1 l/m2 in 12 Std. Regen
Mi, 21.02. 1:00 0.0 l/m2 in 6 Std. -
Ortszeit Niederschlagsmenge Niederschlagsart
Do, 22.02. 22:30 <0.05 l/m2 in 30 Min Schneeregen
Do, 22.02. 22:20 keine Meldung -
Do, 22.02. 22:10 keine Meldung -
Do, 22.02. 22:00 1.4 l/m2 in 1 Std. Regen
Do, 22.02. 21:50 keine Meldung -
Do, 22.02. 21:40 keine Meldung -
Do, 22.02. 21:30 0.2 l/m2 in 30 Min -
Do, 22.02. 21:00 0.0 l/m2 in 1 Std. -
Do, 22.02. 20:30 0.0 l/m2 in 30 Min -
Do, 22.02. 20:00 0.1 l/m2 in 1 Std. Regen
Do, 22.02. 19:30 0.1 l/m2 in 30 Min -
Ortszeit Stärke Spitze Richtung
km/h Bft. km/h Grad Sektor
Do, 22.02. 19:00 22 4 47 180° S
Do, 22.02. 13:00 22 4 50 190° S
Do, 22.02. 7:00 25 4 61 190° S
Do, 22.02. 1:00 20 4 39 240° SW
Mi, 21.02. 19:00 11 2 22 150° SO
Mi, 21.02. 13:00 6 1 22 200° S
Mi, 21.02. 7:00 13 3 20 170° S
Mi, 21.02. 1:00 7 2 18 220° SW
Ortszeit Stärke Spitze Richtung
km/h Bft. km/h Grad Sektor
Do, 22.02. 22:30 22 4 43 240° SW
Do, 22.02. 22:20 22 4 - 240° SW
Do, 22.02. 22:10 18 3 - 220° SW
Do, 22.02. 22:00 14 3 50 210° SW
Do, 22.02. 21:50 14 3 - 210° SW
Do, 22.02. 21:40 17 3 - 250° W
Do, 22.02. 21:30 22 4 50 220° SW
Do, 22.02. 21:00 24 4 50 200° S
Do, 22.02. 20:30 25 4 50 190° S
Do, 22.02. 20:00 22 4 44 190° S
Do, 22.02. 19:30 22 4 41 170° S
Ortszeit Untergrenze Bedeckung Gattung
total tief tief mittel hoch
Do, 22.02. 19:00 1800 m 8/8 8/8 - - -
Do, 22.02. 13:00 1800 m 8/8 8/8 - - -
Do, 22.02. 7:00 1500 m 8/8 8/8 - - -
Do, 22.02. 1:00 1800 m 7/8 7/8 - - -
Mi, 21.02. 19:00 2700 m 8/8 7/8 - - -
Mi, 21.02. 13:00 5400 m 8/8 8/8 - - -
Mi, 21.02. 7:00 4500 m 8/8 8/8 - - -
Mi, 21.02. 1:00 900 m 8/8 7/8 - - -
Ortszeit Bedeckungsgrad in Achtel und Wolkenuntergrenze
Do, 22.02. 22:30 1(1500m) 7(2400m) 8(3000m)
Do, 22.02. 22:20 1(1500m) 7(2400m) 8(3000m)
Do, 22.02. 22:10 7
Do, 22.02. 22:00 3(840m) 7(2700m) 7(3300m)
Do, 22.02. 21:50 3(840m) 7(2700m) 7(3300m)
Do, 22.02. 21:40 7
Do, 22.02. 21:30 2(1170m) 8(5100m) 8(8400m)
Do, 22.02. 21:00 3(1500m) 8(6000m) 8(8100m)
Do, 22.02. 20:30 8(3900m) 8(4800m) 8(6000m)
Do, 22.02. 20:00 6(2700m) 8(3900m) 8(5100m)
Do, 22.02. 19:30 1(1500m) 7(3000m) 7(4200m)
Ortszeit Luftdruck NN (hPa) Tendenz (hPa in 3 Std.)
Do, 22.02. 19:00 993 - 1,7
Do, 22.02. 13:00 998 - 2,9
Do, 22.02. 7:00 1003 - 2,3
Do, 22.02. 1:00 1009 - 3,2
Mi, 21.02. 19:00 1014 - 2,6
Mi, 21.02. 13:00 1020 - 2,5
Mi, 21.02. 7:00 1025 - 1,6
Mi, 21.02. 1:00 1029 - 0,9
Ortszeit Luftdruck NN (hPa) Tendenz (hPa in 3 Std.)
Do, 22.02. 22:30 993 + 1,6
Do, 22.02. 22:20 993 keine Meldung
Do, 22.02. 22:10 993 keine Meldung
Do, 22.02. 22:00 992 - 0,2
Do, 22.02. 21:50 992 keine Meldung
Do, 22.02. 21:40 993 keine Meldung
Do, 22.02. 21:30 992 - 0,9
Do, 22.02. 21:00 991 - 1,8
Do, 22.02. 20:30 991 - 2,0
Do, 22.02. 20:00 992 - 2,1
Do, 22.02. 19:30 992 - 2,4
Ortszeit Schneehöhe (cm)
Do, 22.02. 19:00 0
Do, 22.02. 13:00 0
Do, 22.02. 7:00 0
Do, 22.02. 1:00 0
Mi, 21.02. 19:00 0
Mi, 21.02. 13:00 0
Mi, 21.02. 7:00 0
Mi, 21.02. 1:00 0
Ortszeit Schneehöhe (cm)
Do, 22.02. 22:30 0
Do, 22.02. 22:20 0
Do, 22.02. 22:10 -
Do, 22.02. 22:00 0
Do, 22.02. 21:50 0
Do, 22.02. 21:40 -
Do, 22.02. 21:30 0
Do, 22.02. 21:00 0
Do, 22.02. 20:30 0
Do, 22.02. 20:00 0
Do, 22.02. 19:30 0
Link zu dieser Seite / Seite empfehlen

Das Wetter in ...